createdAt,value
2022-08-23T00:02:27.005Z,21.10
2022-08-23T00:05:09.042Z,21.00
2022-08-23T00:07:39.212Z,20.90
2022-08-23T00:10:09.293Z,20.90
2022-08-23T00:12:36.910Z,20.80
2022-08-23T00:15:05.507Z,20.70
2022-08-23T00:17:35.069Z,20.70
2022-08-23T00:20:10.054Z,20.60
2022-08-23T00:22:37.711Z,20.60
2022-08-23T00:25:06.927Z,20.60
2022-08-23T00:27:34.346Z,20.50
2022-08-23T00:30:01.714Z,20.40
2022-08-23T00:32:31.827Z,20.40
2022-08-23T00:34:59.727Z,20.30
2022-08-23T00:37:28.094Z,20.30
2022-08-23T00:39:54.753Z,20.20
2022-08-23T00:43:01.918Z,20.10
2022-08-23T00:46:05.942Z,20.10
2022-08-23T00:48:34.409Z,20.10
2022-08-23T00:51:08.093Z,20.00
2022-08-23T00:53:38.441Z,20.00
2022-08-23T00:56:08.485Z,19.90
2022-08-23T00:58:35.810Z,19.90
2022-08-23T01:01:05.331Z,19.90
2022-08-23T01:03:38.668Z,19.80
2022-08-23T01:06:18.149Z,19.80
2022-08-23T01:08:49.812Z,19.70
2022-08-23T01:11:24.239Z,19.70
2022-08-23T01:14:13.250Z,19.60
2022-08-23T01:17:03.398Z,19.60
2022-08-23T01:19:47.233Z,19.60
2022-08-23T01:22:42.023Z,19.50
2022-08-23T01:25:12.359Z,19.40
2022-08-23T01:27:40.035Z,19.30
2022-08-23T01:30:10.316Z,19.20
2022-08-23T01:32:44.566Z,19.20
2022-08-23T01:35:12.164Z,19.10
2022-08-23T01:37:38.958Z,19.00
2022-08-23T01:40:06.473Z,19.00
2022-08-23T01:42:33.155Z,19.00
2022-08-23T01:44:59.873Z,18.90
2022-08-23T01:47:26.630Z,18.80
2022-08-23T01:49:53.476Z,18.80
2022-08-23T01:52:20.215Z,18.80
2022-08-23T01:54:46.967Z,18.80
2022-08-23T01:57:13.735Z,18.80
2022-08-23T01:59:42.376Z,18.70
2022-08-23T02:02:09.121Z,18.70
2022-08-23T02:04:35.873Z,18.60
2022-08-23T02:07:02.591Z,18.60
2022-08-23T02:09:29.258Z,18.60
2022-08-23T02:11:57.641Z,18.60
2022-08-23T02:14:24.411Z,18.60
2022-08-23T02:16:53.752Z,18.60
2022-08-23T02:19:31.029Z,18.60
2022-08-23T02:21:57.692Z,18.60
2022-08-23T02:24:25.466Z,18.60
2022-08-23T02:26:56.611Z,18.50
2022-08-23T02:29:25.182Z,18.50
2022-08-23T02:31:53.148Z,18.40
2022-08-23T02:34:35.813Z,18.40
2022-08-23T02:37:02.842Z,18.30
2022-08-23T02:39:30.379Z,18.30
2022-08-23T02:41:57.610Z,18.20
2022-08-23T02:44:24.788Z,18.20
2022-08-23T02:46:51.760Z,18.30
2022-08-23T02:49:18.926Z,18.20
2022-08-23T02:51:46.662Z,18.20
2022-08-23T02:54:13.591Z,18.10
2022-08-23T02:56:40.559Z,18.10
2022-08-23T02:59:07.947Z,18.10
2022-08-23T03:01:39.154Z,18.10
2022-08-23T03:04:10.497Z,18.10
2022-08-23T03:06:38.554Z,18.10
2022-08-23T03:09:08.383Z,18.10
2022-08-23T03:11:35.529Z,18.00
2022-08-23T03:14:02.515Z,18.00
2022-08-23T03:16:30.040Z,18.00
2022-08-23T03:18:56.992Z,17.90
2022-08-23T03:21:23.857Z,17.90
2022-08-23T03:23:51.504Z,17.90
2022-08-23T03:26:18.330Z,17.80
2022-08-23T03:28:46.140Z,17.80
2022-08-23T03:31:14.819Z,17.80
2022-08-23T03:33:41.608Z,17.80
2022-08-23T03:36:11.846Z,17.70
2022-08-23T03:38:39.804Z,17.70
2022-08-23T03:41:07.089Z,17.70
2022-08-23T03:43:34.938Z,17.70
2022-08-23T03:46:01.630Z,17.70
2022-08-23T03:48:28.507Z,17.70
2022-08-23T03:50:55.195Z,17.60
2022-08-23T03:53:23.849Z,17.60
2022-08-23T03:55:52.795Z,17.50
2022-08-23T03:58:20.664Z,17.50
2022-08-23T04:00:47.366Z,17.50
2022-08-23T04:03:14.170Z,17.50
2022-08-23T04:05:40.919Z,17.40
2022-08-23T04:08:09.947Z,17.40
2022-08-23T04:10:37.150Z,17.40
2022-08-23T04:13:04.287Z,17.30
2022-08-23T04:15:31.209Z,17.30
2022-08-23T04:18:00.093Z,17.30
2022-08-23T04:20:27.000Z,17.30
2022-08-23T04:22:55.098Z,17.30
2022-08-23T04:25:34.803Z,17.20
2022-08-23T04:28:02.653Z,17.20
2022-08-23T04:30:29.848Z,17.20
2022-08-23T04:32:57.275Z,17.30
2022-08-23T04:35:25.410Z,17.20
2022-08-23T04:37:52.832Z,17.30
2022-08-23T04:40:38.611Z,17.20
2022-08-23T04:43:05.460Z,17.30
2022-08-23T04:45:32.534Z,17.30
2022-08-23T04:47:59.430Z,17.20
2022-08-23T04:50:26.242Z,17.30
2022-08-23T04:52:53.219Z,17.20
2022-08-23T04:55:20.121Z,17.20
2022-08-23T04:57:46.913Z,17.20
2022-08-23T05:00:16.421Z,17.20
2022-08-23T05:02:43.468Z,17.30
2022-08-23T05:05:11.000Z,17.30
2022-08-23T05:07:42.811Z,17.30
2022-08-23T05:10:12.677Z,17.30
2022-08-23T05:12:39.470Z,17.40
2022-08-23T05:15:06.815Z,17.40
2022-08-23T05:17:33.536Z,17.40
2022-08-23T05:20:00.280Z,17.50
2022-08-23T05:22:26.920Z,17.50
2022-08-23T05:24:53.675Z,17.60
2022-08-23T05:27:20.501Z,17.60
2022-08-23T05:29:47.216Z,17.70
2022-08-23T05:32:13.998Z,17.80
2022-08-23T05:34:42.222Z,17.80
2022-08-23T05:37:09.179Z,17.90
2022-08-23T05:39:37.338Z,18.00
2022-08-23T05:42:06.950Z,18.10
2022-08-23T05:44:36.380Z,18.10
2022-08-23T05:47:10.823Z,18.20
2022-08-23T05:52:30.361Z,18.30
2022-08-23T05:54:57.200Z,18.40
2022-08-23T05:57:24.442Z,18.50
2022-08-23T05:59:51.608Z,18.60
2022-08-23T06:02:18.658Z,18.70
2022-08-23T06:04:45.802Z,18.80
2022-08-23T06:07:12.642Z,18.90
2022-08-23T06:09:39.794Z,19.00
2022-08-23T06:12:06.957Z,19.00
2022-08-23T06:14:34.017Z,19.10
2022-08-23T06:17:01.038Z,19.10
2022-08-23T06:19:28.293Z,19.20
2022-08-23T06:21:55.748Z,19.30
2022-08-23T06:24:23.324Z,19.20
2022-08-23T06:26:51.480Z,19.30
2022-08-23T06:29:20.849Z,19.40
2022-08-23T06:31:50.593Z,19.40
2022-08-23T06:34:33.004Z,19.40
2022-08-23T06:37:14.073Z,19.50
2022-08-23T06:39:41.328Z,19.50
2022-08-23T06:42:36.481Z,19.50
2022-08-23T06:44:59.187Z,19.60
2022-08-23T06:50:19.488Z,19.50
2022-08-23T06:52:49.775Z,19.70
2022-08-23T06:55:17.303Z,19.70
2022-08-23T06:57:44.031Z,19.70
2022-08-23T07:00:11.793Z,19.80
2022-08-23T07:02:38.618Z,19.90
2022-08-23T07:05:05.906Z,19.80
2022-08-23T07:07:41.153Z,19.90
2022-08-23T07:10:11.311Z,20.00
2022-08-23T07:12:42.065Z,20.10
2022-08-23T07:15:10.561Z,20.10
2022-08-23T07:17:37.249Z,20.20
2022-08-23T07:20:04.509Z,20.20
2022-08-23T07:22:31.403Z,20.20
2022-08-23T07:24:58.330Z,20.40
2022-08-23T07:27:25.130Z,20.50
2022-08-23T07:29:51.832Z,20.60
2022-08-23T07:32:18.908Z,20.60
2022-08-23T07:34:45.776Z,20.70
2022-08-23T07:37:15.736Z,20.80
2022-08-23T07:39:43.291Z,20.90
2022-08-23T07:42:23.291Z,21.00
2022-08-23T07:44:51.683Z,21.10
2022-08-23T07:47:19.522Z,21.20
2022-08-23T07:49:47.011Z,21.30
2022-08-23T07:52:13.643Z,21.40
2022-08-23T07:54:40.493Z,21.50
2022-08-23T07:57:10.194Z,21.60
2022-08-23T07:59:36.998Z,21.60
2022-08-23T08:02:03.877Z,21.70
2022-08-23T08:04:30.583Z,21.80
2022-08-23T08:07:17.564Z,21.90
2022-08-23T08:09:45.559Z,22.00
2022-08-23T08:12:12.550Z,22.10
2022-08-23T08:14:39.899Z,22.20
2022-08-23T08:17:06.858Z,22.30
2022-08-23T08:19:33.603Z,22.40
2022-08-23T08:22:00.209Z,22.60
2022-08-23T08:24:26.863Z,22.60
2022-08-23T08:26:53.612Z,22.70
2022-08-23T08:29:20.365Z,22.90
2022-08-23T08:31:49.507Z,23.10
2022-08-23T08:34:20.174Z,23.50
2022-08-23T08:36:52.138Z,23.60
2022-08-23T08:39:23.814Z,23.70
2022-08-23T08:42:09.145Z,23.90
2022-08-23T08:44:49.986Z,24.10
2022-08-23T08:47:27.782Z,24.20
2022-08-23T08:50:32.184Z,24.40
2022-08-23T08:53:11.716Z,24.30
2022-08-23T08:55:49.519Z,24.50
2022-08-23T08:58:48.736Z,24.70
2022-08-23T09:01:20.727Z,24.90
2022-08-23T09:03:48.441Z,25.00
2022-08-23T09:06:49.559Z,25.20
2022-08-23T09:09:30.621Z,25.50
2022-08-23T09:12:30.684Z,25.50
2022-08-23T09:15:12.894Z,25.70
2022-08-23T09:17:56.168Z,26.10
2022-08-23T09:20:29.926Z,26.10
2022-08-23T09:23:17.160Z,26.50
2022-08-23T09:26:15.574Z,26.70
2022-08-23T09:28:43.282Z,26.90
2022-08-23T09:31:10.509Z,27.10
2022-08-23T09:33:43.257Z,27.50
2022-08-23T09:36:25.478Z,27.90
2022-08-23T09:38:58.364Z,27.70
2022-08-23T09:41:36.747Z,28.10
2022-08-23T09:44:07.673Z,28.00
2022-08-23T09:46:41.975Z,27.90
2022-08-23T09:49:30.068Z,28.50
2022-08-23T09:52:00.554Z,28.60
2022-08-23T09:54:34.165Z,29.00
2022-08-23T09:57:09.238Z,29.50
2022-08-23T09:59:42.715Z,29.60
2022-08-23T10:02:28.100Z,29.40
2022-08-23T10:04:57.543Z,29.60
2022-08-23T10:07:36.052Z,29.70
2022-08-23T10:10:25.216Z,30.00
2022-08-23T10:12:54.289Z,30.20
2022-08-23T10:15:49.616Z,30.70
2022-08-23T10:18:35.182Z,30.90
2022-08-23T10:21:08.141Z,31.20
2022-08-23T10:23:52.268Z,30.50
2022-08-23T10:26:30.831Z,30.90
2022-08-23T10:29:39.201Z,30.90
2022-08-23T10:32:23.192Z,31.50
2022-08-23T10:34:55.831Z,31.90
2022-08-23T10:37:46.262Z,32.20
2022-08-23T10:40:45.394Z,32.50
2022-08-23T10:43:26.103Z,33.30
2022-08-23T10:46:00.244Z,32.50
2022-08-23T10:48:35.364Z,32.10
2022-08-23T10:51:10.093Z,32.60
2022-08-23T10:53:46.720Z,32.90
2022-08-23T10:56:21.013Z,33.70
2022-08-23T10:58:56.942Z,34.30
2022-08-23T11:01:28.716Z,33.30
2022-08-23T11:04:09.955Z,33.00
2022-08-23T11:06:36.608Z,33.40
2022-08-23T11:09:29.190Z,32.90
2022-08-23T11:12:20.525Z,33.60
2022-08-23T11:15:12.434Z,33.80
2022-08-23T11:17:52.710Z,33.30
2022-08-23T11:20:50.446Z,34.30
2022-08-23T11:23:42.004Z,33.90
2022-08-23T11:26:31.337Z,34.60
2022-08-23T11:29:06.865Z,33.90
2022-08-23T11:31:48.820Z,33.40
2022-08-23T11:34:29.553Z,34.00
2022-08-23T11:37:18.310Z,34.90
2022-08-23T11:40:00.094Z,34.30
2022-08-23T11:42:39.746Z,35.20
2022-08-23T11:45:28.146Z,35.00
2022-08-23T11:48:37.107Z,35.30
2022-08-23T11:51:18.126Z,35.10
2022-08-23T11:53:54.654Z,35.00
2022-08-23T11:56:28.252Z,34.70
2022-08-23T11:59:22.378Z,34.20
2022-08-23T12:01:50.746Z,35.40
2022-08-23T12:04:37.861Z,35.30
2022-08-23T12:07:12.439Z,36.40
2022-08-23T12:09:42.339Z,36.10
2022-08-23T12:12:11.371Z,36.20
2022-08-23T12:14:44.268Z,36.20
2022-08-23T12:17:16.901Z,35.80
2022-08-23T12:19:51.358Z,35.10
2022-08-23T12:22:21.724Z,34.40
2022-08-23T12:24:54.875Z,35.40
2022-08-23T12:27:21.512Z,35.90
2022-08-23T12:30:09.459Z,34.80
2022-08-23T12:32:45.008Z,33.90
2022-08-23T12:35:41.960Z,33.80
2022-08-23T12:38:29.813Z,34.80
2022-08-23T12:40:56.980Z,35.10
2022-08-23T12:43:30.158Z,34.80
2022-08-23T12:46:00.775Z,34.70
2022-08-23T12:48:31.956Z,35.10
2022-08-23T12:51:08.214Z,35.20
2022-08-23T12:53:44.059Z,35.20
2022-08-23T12:56:22.764Z,34.90
2022-08-23T12:59:03.391Z,33.80
2022-08-23T13:01:38.445Z,32.70
2022-08-23T13:04:11.006Z,32.60
2022-08-23T13:06:50.987Z,32.30
2022-08-23T13:09:24.626Z,32.00
2022-08-23T13:11:52.489Z,31.80
2022-08-23T13:14:42.476Z,31.60
2022-08-23T13:17:19.852Z,31.30
2022-08-23T13:19:52.566Z,31.00
2022-08-23T13:22:22.433Z,30.90
2022-08-23T13:27:56.156Z,30.40
2022-08-23T13:30:26.998Z,30.50
2022-08-23T13:33:13.593Z,30.30
2022-08-23T13:35:49.979Z,30.00
2022-08-23T13:38:26.208Z,30.30
2022-08-23T13:40:57.973Z,30.20
2022-08-23T13:43:37.801Z,30.30
2022-08-23T13:46:26.591Z,30.30
2022-08-23T13:49:19.770Z,30.20
2022-08-23T13:54:51.027Z,30.00
2022-08-23T13:57:20.733Z,30.10
2022-08-23T13:59:56.112Z,29.90
2022-08-23T14:02:24.166Z,29.70
2022-08-23T14:04:51.371Z,29.80
2022-08-23T14:07:18.639Z,29.70
2022-08-23T14:09:45.457Z,29.60
2022-08-23T14:12:18.679Z,29.50
2022-08-23T14:14:46.330Z,29.40
2022-08-23T14:17:16.522Z,29.60
2022-08-23T14:22:34.045Z,29.60
2022-08-23T14:25:01.201Z,29.50
2022-08-23T14:27:28.059Z,29.50
2022-08-23T14:29:55.041Z,29.50
2022-08-23T14:32:22.004Z,29.60
2022-08-23T14:34:49.205Z,29.50
2022-08-23T14:40:03.414Z,29.50
2022-08-23T14:42:30.138Z,29.50
2022-08-23T14:44:56.810Z,29.40
2022-08-23T14:47:23.501Z,29.30
2022-08-23T14:49:53.746Z,29.30
2022-08-23T14:52:21.208Z,29.40
2022-08-23T14:54:49.540Z,29.40
2022-08-23T14:57:16.540Z,29.30
2022-08-23T14:59:43.536Z,29.40
2022-08-23T15:02:13.454Z,29.40
2022-08-23T15:04:41.826Z,29.50
2022-08-23T15:07:24.260Z,29.50
2022-08-23T15:13:20.638Z,29.50
2022-08-23T15:15:35.244Z,29.50
2022-08-23T15:20:58.421Z,29.20
2022-08-23T15:23:25.194Z,29.10
2022-08-23T15:25:52.002Z,29.20
2022-08-23T15:28:21.126Z,29.10
2022-08-23T15:30:48.862Z,29.10
2022-08-23T15:33:15.926Z,29.10
2022-08-23T15:35:49.437Z,29.20
2022-08-23T15:38:18.087Z,29.10
2022-08-23T15:40:45.510Z,29.00
2022-08-23T15:43:12.437Z,29.20
2022-08-23T15:45:39.760Z,29.20
2022-08-23T15:48:18.823Z,29.20
2022-08-23T15:50:46.671Z,29.10
2022-08-23T15:53:14.748Z,29.00
2022-08-23T15:55:46.129Z,29.10
2022-08-23T15:58:21.776Z,29.10
2022-08-23T16:00:49.566Z,29.00
2022-08-23T16:03:19.123Z,28.90
2022-08-23T16:05:52.543Z,28.90
2022-08-23T16:08:30.031Z,28.90
2022-08-23T16:10:57.811Z,28.80
2022-08-23T16:13:26.017Z,28.70
2022-08-23T16:15:53.215Z,28.70
2022-08-23T16:18:20.577Z,28.60
2022-08-23T16:20:47.237Z,28.50
2022-08-23T16:23:14.030Z,28.40
2022-08-23T16:25:41.823Z,28.50
2022-08-23T16:28:08.766Z,28.40
2022-08-23T16:30:36.099Z,28.40
2022-08-23T16:33:03.559Z,28.30
2022-08-23T16:35:30.308Z,28.30
2022-08-23T16:37:57.064Z,28.30
2022-08-23T16:40:23.899Z,28.30
2022-08-23T16:42:52.254Z,28.30
2022-08-23T16:45:25.870Z,28.30
2022-08-23T16:47:53.779Z,28.30
2022-08-23T16:50:20.450Z,28.30
2022-08-23T16:52:47.264Z,28.30
2022-08-23T16:55:14.322Z,28.30
2022-08-23T16:57:41.015Z,28.30
2022-08-23T17:00:11.676Z,28.30
2022-08-23T17:02:39.411Z,28.20
2022-08-23T17:05:09.107Z,28.20
2022-08-23T17:07:35.900Z,28.20
2022-08-23T17:10:04.028Z,28.10
2022-08-23T17:12:32.670Z,28.00
2022-08-23T17:14:59.446Z,28.00
2022-08-23T17:17:26.229Z,27.90
2022-08-23T17:19:53.068Z,27.90
2022-08-23T17:22:19.988Z,27.80
2022-08-23T17:24:46.672Z,27.80
2022-08-23T17:27:19.090Z,27.70
2022-08-23T17:29:46.362Z,27.70
2022-08-23T17:32:13.528Z,27.60
2022-08-23T17:34:40.220Z,27.50
2022-08-23T17:37:16.171Z,27.40
2022-08-23T17:39:43.008Z,27.30
2022-08-23T17:42:09.993Z,27.10
2022-08-23T17:44:36.835Z,27.00
2022-08-23T17:47:07.624Z,26.90
2022-08-23T17:49:34.625Z,26.80
2022-08-23T17:52:03.062Z,26.60
2022-08-23T17:54:29.752Z,26.50
2022-08-23T17:56:57.501Z,26.40
2022-08-23T17:59:24.133Z,26.30
2022-08-23T18:01:52.030Z,26.20
2022-08-23T18:04:18.847Z,26.00
2022-08-23T18:06:46.348Z,25.90
2022-08-23T18:09:14.145Z,25.80
2022-08-23T18:11:41.338Z,25.70
2022-08-23T18:14:08.489Z,25.60
2022-08-23T18:16:36.065Z,25.50
2022-08-23T18:19:05.154Z,25.40
2022-08-23T18:21:33.210Z,25.30
2022-08-23T18:24:00.362Z,25.30
2022-08-23T18:26:46.375Z,25.10
2022-08-23T18:29:14.705Z,25.00
2022-08-23T18:31:43.937Z,24.80
2022-08-23T18:34:12.392Z,24.70
2022-08-23T18:36:39.970Z,24.60
2022-08-23T18:39:08.762Z,24.50
2022-08-23T18:41:36.248Z,24.40
2022-08-23T18:44:05.817Z,24.40
2022-08-23T18:46:34.608Z,24.30
2022-08-23T18:49:02.378Z,24.20
2022-08-23T18:51:29.946Z,24.20
2022-08-23T18:53:57.797Z,24.10
2022-08-23T18:56:25.775Z,24.10
2022-08-23T18:58:53.471Z,24.10
2022-08-23T19:01:27.169Z,24.00
2022-08-23T19:03:56.333Z,23.90
2022-08-23T19:06:23.510Z,23.80
2022-08-23T19:08:51.659Z,23.70
2022-08-23T19:11:19.974Z,23.60
2022-08-23T19:13:47.471Z,23.40
2022-08-23T19:16:15.510Z,23.40
2022-08-23T19:18:46.133Z,23.30
2022-08-23T19:21:15.462Z,23.20
2022-08-23T19:23:42.463Z,23.20
2022-08-23T19:26:11.572Z,23.10
2022-08-23T19:28:39.422Z,23.00
2022-08-23T19:31:06.848Z,22.90
2022-08-23T19:33:34.028Z,22.90
2022-08-23T19:36:01.017Z,22.80
2022-08-23T19:38:28.242Z,22.80
2022-08-23T19:40:55.782Z,22.80
2022-08-23T19:43:22.976Z,22.80
2022-08-23T19:45:49.764Z,22.80
2022-08-23T19:48:16.977Z,22.80
2022-08-23T19:50:43.686Z,22.70
2022-08-23T19:53:10.403Z,22.70
2022-08-23T19:55:44.747Z,22.70
2022-08-23T19:58:13.231Z,22.60
2022-08-23T20:00:40.374Z,22.50
2022-08-23T20:03:07.015Z,22.50
2022-08-23T20:05:34.254Z,22.40
2022-08-23T20:08:01.096Z,22.30
2022-08-23T20:10:27.951Z,22.30
2022-08-23T20:12:54.695Z,22.30
2022-08-23T20:15:21.346Z,22.30
2022-08-23T20:17:48.164Z,22.30
2022-08-23T20:20:14.946Z,22.20
2022-08-23T20:23:00.885Z,22.20
2022-08-23T20:25:30.652Z,22.20
2022-08-23T20:27:57.652Z,22.20
2022-08-23T20:30:24.387Z,22.20
2022-08-23T20:32:51.194Z,22.20
2022-08-23T20:35:18.277Z,22.20
2022-08-23T20:37:45.112Z,22.20
2022-08-23T20:40:12.198Z,22.20
2022-08-23T20:45:32.944Z,22.10
2022-08-23T20:48:00.215Z,22.10
2022-08-23T20:50:27.244Z,22.10
2022-08-23T20:52:55.214Z,22.10
2022-08-23T20:55:22.480Z,22.00
2022-08-23T20:57:49.180Z,22.00
2022-08-23T21:00:16.558Z,21.90
2022-08-23T21:02:43.605Z,21.90
2022-08-23T21:05:10.348Z,21.80
2022-08-23T21:07:37.392Z,21.70
2022-08-23T21:10:05.281Z,21.70
2022-08-23T21:12:32.076Z,21.60
2022-08-23T21:14:58.942Z,21.60
2022-08-23T21:17:26.101Z,21.60
2022-08-23T21:19:53.147Z,21.50
2022-08-23T21:22:20.294Z,21.50
2022-08-23T21:24:47.062Z,21.50
2022-08-23T21:27:15.819Z,21.50
2022-08-23T21:29:42.769Z,21.60
2022-08-23T21:32:09.929Z,21.50
2022-08-23T21:34:36.992Z,21.50
2022-08-23T21:37:04.010Z,21.50
2022-08-23T21:39:30.951Z,21.50
2022-08-23T21:41:58.000Z,21.40
2022-08-23T21:44:25.870Z,21.40
2022-08-23T21:46:52.918Z,21.40
2022-08-23T21:49:21.197Z,21.40
2022-08-23T21:51:49.157Z,21.40
2022-08-23T21:54:18.359Z,21.40
2022-08-23T21:56:46.131Z,21.50
2022-08-23T22:02:07.403Z,21.50
2022-08-23T22:04:34.702Z,21.50
2022-08-23T22:07:02.166Z,21.60
2022-08-23T22:09:31.343Z,21.70
2022-08-23T22:12:00.361Z,21.80
2022-08-23T22:14:31.327Z,22.00
2022-08-23T22:16:59.781Z,22.10
2022-08-23T22:19:26.922Z,22.20
2022-08-23T22:21:54.079Z,22.30
2022-08-23T22:24:25.444Z,22.30
2022-08-23T22:26:57.691Z,22.30
2022-08-23T22:29:24.737Z,22.30
2022-08-23T22:31:51.809Z,22.30
2022-08-23T22:34:18.999Z,22.40
2022-08-23T22:36:46.290Z,22.40
2022-08-23T22:39:19.685Z,22.40
2022-08-23T22:41:46.631Z,22.40
2022-08-23T22:44:13.884Z,22.50
2022-08-23T22:46:41.285Z,22.50
2022-08-23T22:49:09.032Z,22.50
2022-08-23T22:51:37.172Z,22.50
2022-08-23T22:54:10.785Z,22.60
2022-08-23T22:59:33.317Z,22.70
2022-08-23T23:02:03.200Z,22.70
2022-08-23T23:04:32.527Z,22.70
2022-08-23T23:07:00.010Z,22.70
2022-08-23T23:09:27.595Z,22.60
2022-08-23T23:11:55.227Z,22.60
2022-08-23T23:14:22.380Z,22.60
2022-08-23T23:16:50.124Z,22.60
2022-08-23T23:19:36.039Z,22.60
2022-08-23T23:22:04.088Z,22.60
2022-08-23T23:24:34.424Z,22.60
2022-08-23T23:27:02.602Z,22.60
2022-08-23T23:29:30.976Z,22.60
2022-08-23T23:31:58.846Z,22.60
2022-08-23T23:34:26.824Z,22.60
2022-08-23T23:36:56.315Z,22.60
2022-08-23T23:39:23.774Z,22.60
2022-08-23T23:41:50.920Z,22.50
2022-08-23T23:44:24.415Z,22.50
2022-08-23T23:47:00.098Z,22.40
2022-08-23T23:52:18.345Z,22.20
2022-08-23T23:54:46.316Z,22.20
2022-08-23T23:57:13.346Z,22.10
2022-08-23T23:59:41.221Z,22.10
